Latest METARs, TAFs and NOTAMs for EGWU


---------------------------------------------------------------------------
	(OBSERVATIONS)
EGWU 230820Z NIL=
EGWU 230820Z 36007KT 5000 -RA SCT007 BKN012 OVC040 09/09 Q1015
    GRN NOSIG=
EGWU 230750Z 01008KT 4000 RADZ SCT006 BKN014 OVC030 09/09 Q1014
    YLO1 NOSIG=
EGWU 230720Z NIL=
EGWU 230710Z 02007KT 5000 -RADZ BKN006 OVC012 09/09 Q1013 YLO1
    TEMPO 4000 RA YLO1=
EGWU 230650Z 02005KT 3000 RADZ BKN005 OVC012 09/09 Q1013 YLO1
    NOSIG=
EGWU 230620Z NIL=
EGWU 230550Z 04008KT 2500 RADZ BKN004 OVC020 09/09 Q1013 YLO2
    TEMPO 4000 RA GRN=
---------------------------------------------------------------------------
	(FC)
Sorry, FC For EGWU Not Found
---------------------------------------------------------------------------
	(TERMINAL AREA FORECAST)
EGWU 230743Z 2309/2403 36008KT 9999 BKN018
    TEMPO 2309/2313 33015G25KT 4000 RA BKN010
    PROB40 TEMPO 2309/2310 3000 RADZ BKN004
    BECMG 2312/2314 SCT025=
---------------------------------------------------------------------------
	(NOTAMS)


EGWU U3503/18 THE FOLLOWING SID ARE AMENDED AS FOLLOWS DET 4X
    - AHEAD TO 3000, PASSING 900, LEFT ON OCK 010R. CONTINUE
    AS PUBLSIHED MATCH 1X - AHEAD TO 3000, PASSING 900, LEFT
    ON OCK 010R. CONTINUE AS PUBLISHED CPT 5X - AHEAD TO 3000,
    PASSING 900, LEFT ON OCK 010R. CONTINUE AS PUBLISHED BUZAD
    3X - AHEAD TO 3000, PASSING 900, LEFT ON OCK 010R. CONTINUE
    AS PUBLISHED. 10 AUG 08:01 2018 UNTIL PERM. CREATED: 10 AUG
    08:06 2018

EGWU U3676/18 CRANE. CONSTRUCTION SITE CRANE OPERATING AT PSN
    513255N 0002035W (EALING, WEST LONDON). UP TO 350FT AGL/600FT
    AMSL. FOR INFO CONTACT 07966 989256 OR 07920 389783. ON EXPIRY
    OF THIS NOTAM DETAILS WILL BE INCLUDED IN THE UK AIP ENR
    5.4 2018-10-0024/AS4. 15 OCT 00:01 2018 UNTIL 14 JAN 23:59
    2019. CREATED: 23 AUG 08:14 2018

EGWU U3795/18 PILOTS ARE TO BE AWARE OF AN AREA OF DISTURBED
    GROUND WITHIN THE RUNWAY STRIP OPPOSITE TAXIWAY ECHO (PSN:
    515519N 004252W), WHICH DOES NOT CONFORM TO REGULATORY STANDS.
    PILOTS ARE ALSO TO BE AWARE OF THE POSSIBILITY OF INCREASED
    BIRD ACTIVITY IN THAT POSITION. 30 AUG 15:15 2018 UNTIL 30
    NOV 23:59 2018. CREATED: 30 AUG 15:11 2018

EGWU U3826/16 ALL USERS OF RAF NORTHOLT MUST COMPLY WITH THE
    DEFENCE AERODROME MANUAL. 18 NOV 06:00 2016 UNTIL PERM. CREATED:
    18 NOV 06:07 2016

EGWU U3898/18 AD CLOSED TO CIVILIAN ACFT, MIL ACFT VIA PPR ONLY.
    ATS CAT A AND B FLIGHTS EXEMPT. MON-FRI 1600-1900, SAT 0700-1400,
    SUN 1100-1800, 10 SEP 16:00 2018 UNTIL 30 SEP 18:00 2018.
    CREATED: 05 SEP 13:02 2018

EGWU U3943/18 TAXIWAY DELTA ALPHA IS CLOSED TO AIRCRAFT DURING
    THE HOURS OF DARKNESS OR DURING LVP PROCEDURES. 07 SEP 10:08
    2018 UNTIL 30 NOV 23:59 2018. CREATED: 07 SEP 10:07 2018

EGWU U4087/18 AMEND DET 4Y SID TEXT. LINE ONE, LONDON CTR BDRY/BPK
    VOR R240 TO READ LONDON CTR BDRY/BPK VOR R241. AD 2 EGWU-6-4
    (13 SEP 18) REFERS. 17 SEP 14:16 2018 UNTIL PERM. CREATED:
    17 SEP 14:17 2018

EGWU U4164/18 2 CRANES OPR AT PSN 513229N 0002814W (UXBRIDGE)
    MAX HEIGHT 207FT AGL, 362FT AMSL THE CRANES PENETRATE THE
    INNER HORIZONTAL SURFACE AND THE 07 APPROACH AND 26 TAKE-OFF
    CLIMB SURFACES. 20 SEP 11:01 2018 UNTIL 20 DEC 23:59 2018.
    CREATED: 20 SEP 11:11 2018

EGWU U4165/18 PAR 07 MINIMA INCREASED AS FOLLOWS: CAT A 470 (350)
    TO 500 (380) CAT B 480 (360) TO 510 (390) CAT C 490 (370)
    TO 520 (400) CAT D 500 (380) TO 530 (410. 20 SEP 11:07 2018
    UNTIL 20 DEC 23:59 2018. CREATED: 20 SEP 11:12 2018

EGWU V0241/18 [US DOD PROCEDURAL NOTAM] INSTRUMENT APPROACH PROCEDURE
    AMENDMENT COMPTON SID TURN LEFT AT OR ABOVE 900 TO INTERCEPT
    OCK VOR/DME R-010. REST OF ROUTE UNCHANGED. 14 SEP 14:43
    2018 UNTIL 08 NOV 23:59 2018. CREATED: 14 SEP 14:43 2018

---------------------------------------------------------------------------